createdAt,value
2019-02-02T00:02:09.713Z,28.80
2019-02-02T00:04:38.515Z,26.63
2019-02-02T00:07:08.245Z,30.37
2019-02-02T00:09:36.738Z,26.83
2019-02-02T00:12:05.474Z,25.07
2019-02-02T00:14:34.227Z,23.87
2019-02-02T00:17:02.835Z,28.20
2019-02-02T00:19:31.335Z,25.57
2019-02-02T00:22:00.107Z,29.60
2019-02-02T00:24:28.663Z,23.87
2019-02-02T00:26:57.396Z,28.30
2019-02-02T00:29:25.900Z,27.60
2019-02-02T00:31:54.544Z,24.63
2019-02-02T00:34:23.045Z,29.10
2019-02-02T00:36:51.801Z,29.73
2019-02-02T00:39:20.305Z,22.93
2019-02-02T00:41:49.047Z,21.70
2019-02-02T00:44:17.583Z,29.17
2019-02-02T00:46:45.997Z,24.57
2019-02-02T00:49:14.451Z,24.37
2019-02-02T00:51:43.022Z,25.93
2019-02-02T00:54:11.759Z,27.50
2019-02-02T00:56:40.369Z,27.23
2019-02-02T00:59:09.181Z,24.73
2019-02-02T01:01:37.750Z,21.50
2019-02-02T01:04:06.586Z,27.53
2019-02-02T01:06:35.204Z,26.70
2019-02-02T01:09:09.605Z,24.20
2019-02-02T01:11:38.506Z,25.03
2019-02-02T01:14:07.156Z,24.13
2019-02-02T01:16:35.780Z,24.73
2019-02-02T01:19:05.429Z,28.47
2019-02-02T01:21:34.186Z,25.17
2019-02-02T01:24:02.820Z,26.97
2019-02-02T01:26:31.511Z,21.47
2019-02-02T01:29:00.209Z,26.23
2019-02-02T01:31:28.920Z,29.17
2019-02-02T01:33:57.600Z,26.63
2019-02-02T01:36:26.259Z,24.13
2019-02-02T01:38:54.850Z,23.80
2019-02-02T01:41:23.543Z,27.03
2019-02-02T01:43:52.974Z,30.23
2019-02-02T01:46:21.580Z,25.47
2019-02-02T01:48:50.057Z,30.17
2019-02-02T01:51:18.782Z,26.07
2019-02-02T01:53:47.663Z,28.27
2019-02-02T01:56:16.287Z,27.00
2019-02-02T01:58:45.144Z,26.73
2019-02-02T02:01:13.984Z,20.80
2019-02-02T02:03:45.190Z,26.17
2019-02-02T02:06:14.144Z,25.03
2019-02-02T02:08:42.915Z,28.90
2019-02-02T02:11:11.706Z,20.83
2019-02-02T02:13:40.437Z,24.95
2019-02-02T02:16:09.162Z,20.43
2019-02-02T02:18:39.060Z,27.17
2019-02-02T02:21:07.807Z,22.83
2019-02-02T02:23:36.486Z,23.23
2019-02-02T02:26:05.177Z,22.97
2019-02-02T02:28:33.801Z,28.17
2019-02-02T02:31:02.496Z,22.20
2019-02-02T02:33:31.161Z,24.20
2019-02-02T02:35:59.876Z,22.07
2019-02-02T02:38:28.631Z,23.37
2019-02-02T02:40:57.479Z,21.30
2019-02-02T02:43:26.322Z,23.43
2019-02-02T02:45:54.981Z,23.73
2019-02-02T02:48:23.750Z,21.50
2019-02-02T02:50:52.544Z,22.93
2019-02-02T02:53:20.911Z,26.63
2019-02-02T02:55:49.642Z,27.63
2019-02-02T02:58:18.326Z,19.37
2019-02-02T03:00:47.018Z,20.10
2019-02-02T03:03:15.621Z,19.77
2019-02-02T03:05:44.426Z,19.67
2019-02-02T03:08:13.077Z,24.17
2019-02-02T03:10:41.800Z,25.80
2019-02-02T03:13:10.604Z,23.80
2019-02-02T03:15:39.390Z,21.77
2019-02-02T03:18:08.281Z,18.03
2019-02-02T03:20:36.986Z,18.30
2019-02-02T03:23:05.861Z,24.07
2019-02-02T03:25:34.634Z,26.10
2019-02-02T03:28:03.804Z,21.47
2019-02-02T03:30:32.632Z,18.70
2019-02-02T03:33:01.410Z,22.23
2019-02-02T03:35:30.174Z,19.53
2019-02-02T03:37:58.920Z,22.93
2019-02-02T03:40:27.596Z,21.33
2019-02-02T03:43:01.372Z,19.23
2019-02-02T03:45:40.363Z,22.93
2019-02-02T03:48:13.388Z,14.23
2019-02-02T03:50:43.025Z,17.27
2019-02-02T03:53:11.659Z,21.50
2019-02-02T03:55:40.227Z,18.90
2019-02-02T03:58:09.303Z,23.47
2019-02-02T04:00:38.142Z,20.03
2019-02-02T04:03:06.816Z,19.07
2019-02-02T04:05:35.384Z,23.50
2019-02-02T04:08:04.255Z,22.50
2019-02-02T04:10:33.054Z,22.20
2019-02-02T04:13:01.884Z,19.93
2019-02-02T04:15:31.844Z,18.60
2019-02-02T04:18:02.038Z,18.13
2019-02-02T04:20:31.059Z,20.53
2019-02-02T04:23:02.954Z,18.23
2019-02-02T04:25:33.266Z,22.27
2019-02-02T04:28:02.081Z,21.17
2019-02-02T04:30:33.129Z,19.40
2019-02-02T04:33:02.107Z,18.93
2019-02-02T04:35:30.781Z,15.07
2019-02-02T04:37:59.631Z,15.57
2019-02-02T04:40:28.454Z,17.43
2019-02-02T04:42:57.259Z,21.63
2019-02-02T04:45:26.084Z,22.10
2019-02-02T04:47:54.912Z,23.27
2019-02-02T04:50:23.725Z,18.60
2019-02-02T04:52:52.563Z,22.20
2019-02-02T04:55:24.081Z,17.70
2019-02-02T04:57:55.113Z,20.90
2019-02-02T05:00:27.556Z,20.30
2019-02-02T05:02:56.460Z,17.80
2019-02-02T05:05:25.444Z,20.70
2019-02-02T05:07:56.332Z,22.90
2019-02-02T05:10:25.439Z,22.20
2019-02-02T05:12:54.317Z,21.93
2019-02-02T05:15:23.114Z,20.73
2019-02-02T05:17:53.033Z,17.90
2019-02-02T05:20:21.986Z,24.23
2019-02-02T05:22:51.089Z,20.07
2019-02-02T05:25:19.870Z,21.23
2019-02-02T05:27:48.716Z,18.80
2019-02-02T05:30:20.201Z,17.57
2019-02-02T05:32:49.528Z,21.57
2019-02-02T05:35:19.428Z,18.30
2019-02-02T05:37:48.270Z,22.57
2019-02-02T05:40:17.806Z,19.57
2019-02-02T05:42:46.787Z,20.20
2019-02-02T05:45:17.255Z,19.17
2019-02-02T05:47:46.751Z,20.70
2019-02-02T05:50:17.332Z,21.93
2019-02-02T05:52:47.199Z,21.43
2019-02-02T05:55:16.504Z,22.63
2019-02-02T05:57:45.347Z,20.30
2019-02-02T06:00:40.704Z,22.00
2019-02-02T06:03:09.512Z,23.50
2019-02-02T06:05:38.293Z,22.43
2019-02-02T06:08:07.173Z,21.47
2019-02-02T06:10:35.975Z,23.70
2019-02-02T06:13:04.970Z,26.80
2019-02-02T06:15:33.737Z,27.27
2019-02-02T06:18:02.515Z,25.23
2019-02-02T06:20:31.203Z,27.07
2019-02-02T06:23:00.083Z,30.52
2019-02-02T06:25:28.883Z,28.77
2019-02-02T06:27:59.661Z,28.93
2019-02-02T06:32:52.826Z,30.27
2019-02-02T06:35:21.684Z,30.53
2019-02-02T06:37:50.575Z,28.67
2019-02-02T06:40:21.858Z,35.83
2019-02-02T06:42:50.809Z,34.87
2019-02-02T06:45:31.153Z,40.47
2019-02-02T06:48:01.025Z,37.30
2019-02-02T06:50:29.885Z,39.87
2019-02-02T06:52:58.987Z,40.10
2019-02-02T06:55:27.787Z,44.90
2019-02-02T06:57:56.641Z,43.87
2019-02-02T07:00:26.492Z,48.17
2019-02-02T07:02:55.610Z,58.07
2019-02-02T07:05:24.399Z,75.87
2019-02-02T07:07:53.211Z,73.57
2019-02-02T07:10:25.809Z,83.80
2019-02-02T07:12:55.719Z,63.33
2019-02-02T07:15:26.585Z,76.43
2019-02-02T07:17:55.466Z,97.33
2019-02-02T07:20:24.139Z,103.70
2019-02-02T07:22:52.982Z,128.20
2019-02-02T07:25:22.016Z,180.40
2019-02-02T07:27:50.719Z,169.27
2019-02-02T07:30:28.296Z,193.27
2019-02-02T07:32:51.364Z,139.13
2019-02-02T07:35:20.250Z,158.77
2019-02-02T07:37:49.043Z,111.30
2019-02-02T07:40:17.942Z,102.30
2019-02-02T07:42:46.757Z,153.83
2019-02-02T07:45:18.069Z,139.83
2019-02-02T07:47:46.973Z,159.10
2019-02-02T07:50:16.955Z,140.33
2019-02-02T07:52:45.921Z,152.10
2019-02-02T07:55:16.008Z,134.23
2019-02-02T07:57:44.976Z,171.07
2019-02-02T08:00:19.212Z,137.57
2019-02-02T08:02:48.064Z,169.57
2019-02-02T08:05:16.911Z,172.77
2019-02-02T08:07:45.628Z,168.97
2019-02-02T08:10:14.699Z,187.90
2019-02-02T08:12:43.394Z,194.73
2019-02-02T08:15:15.138Z,176.53
2019-02-02T08:17:43.914Z,184.70
2019-02-02T08:20:13.095Z,111.17
2019-02-02T08:22:41.789Z,173.10
2019-02-02T08:25:12.022Z,119.77
2019-02-02T08:27:40.843Z,122.53
2019-02-02T08:30:13.228Z,194.57
2019-02-02T08:32:43.024Z,157.20
2019-02-02T08:35:11.825Z,253.63
2019-02-02T08:37:40.715Z,202.17
2019-02-02T08:40:11.083Z,76.77
2019-02-02T08:42:40.733Z,233.37
2019-02-02T08:45:10.267Z,71.73
2019-02-02T08:47:39.015Z,103.90
2019-02-02T08:50:14.907Z,101.87
2019-02-02T08:52:43.796Z,72.80
2019-02-02T08:55:12.757Z,65.43
2019-02-02T08:57:41.442Z,122.87
2019-02-02T09:00:13.684Z,106.80
2019-02-02T09:02:42.683Z,123.13
2019-02-02T09:05:12.359Z,86.80
2019-02-02T09:07:41.042Z,114.77
2019-02-02T09:10:13.138Z,76.63
2019-02-02T09:12:41.928Z,88.77
2019-02-02T09:15:11.570Z,66.87
2019-02-02T09:17:41.167Z,68.40
2019-02-02T09:20:11.116Z,61.50
2019-02-02T09:22:40.891Z,58.67
2019-02-02T09:25:11.521Z,61.03
2019-02-02T09:27:40.187Z,81.43
2019-02-02T09:30:26.206Z,53.00
2019-02-02T09:32:55.011Z,52.43
2019-02-02T09:35:23.826Z,46.60
2019-02-02T09:37:52.647Z,49.20
2019-02-02T09:40:21.612Z,46.70
2019-02-02T09:42:50.494Z,49.83
2019-02-02T09:45:19.648Z,44.63
2019-02-02T09:47:48.842Z,50.63
2019-02-02T09:50:20.076Z,51.63
2019-02-02T09:52:48.946Z,49.23
2019-02-02T09:55:19.240Z,52.07
2019-02-02T09:57:48.213Z,50.30
2019-02-02T10:00:19.628Z,54.13
2019-02-02T10:02:48.540Z,61.60
2019-02-02T10:05:19.224Z,51.97
2019-02-02T10:07:48.002Z,43.70
2019-02-02T10:10:21.657Z,44.17
2019-02-02T10:12:50.459Z,50.17
2019-02-02T10:15:19.523Z,42.47
2019-02-02T10:17:49.799Z,52.43
2019-02-02T10:20:23.286Z,37.30
2019-02-02T10:22:52.287Z,59.53
2019-02-02T10:25:23.324Z,52.10
2019-02-02T10:27:51.842Z,45.93
2019-02-02T10:30:22.904Z,49.05
2019-02-02T10:32:51.484Z,62.60
2019-02-02T10:35:19.831Z,42.63
2019-02-02T10:37:48.208Z,47.43
2019-02-02T10:40:16.478Z,49.73
2019-02-02T10:42:45.072Z,54.23
2019-02-02T10:45:13.847Z,60.60
2019-02-02T10:47:42.923Z,51.53
2019-02-02T10:50:12.050Z,57.03
2019-02-02T10:52:41.556Z,48.37
2019-02-02T10:55:10.523Z,53.67
2019-02-02T10:57:39.084Z,60.60
2019-02-02T11:00:10.603Z,58.83
2019-02-02T11:02:39.953Z,60.07
2019-02-02T11:05:10.802Z,66.25
2019-02-02T11:07:39.231Z,58.80
2019-02-02T11:10:09.173Z,58.17
2019-02-02T11:12:37.643Z,57.07
2019-02-02T11:15:07.301Z,66.20
2019-02-02T11:17:35.724Z,69.63
2019-02-02T11:20:04.871Z,58.80
2019-02-02T11:22:33.408Z,87.17
2019-02-02T11:25:02.001Z,74.37
2019-02-02T11:27:30.691Z,101.67
2019-02-02T11:29:59.207Z,90.27
2019-02-02T11:32:27.954Z,81.67
2019-02-02T11:34:56.386Z,90.43
2019-02-02T11:37:25.030Z,76.97
2019-02-02T11:39:53.534Z,211.60
2019-02-02T11:42:21.862Z,134.80
2019-02-02T11:44:57.219Z,137.50
2019-02-02T11:47:27.758Z,166.27
2019-02-02T11:49:56.241Z,91.35
2019-02-02T11:52:24.422Z,100.93
2019-02-02T11:54:53.645Z,110.53
2019-02-02T11:57:22.001Z,81.47
2019-02-02T11:59:50.350Z,86.13
2019-02-02T12:02:18.828Z,84.53
2019-02-02T12:04:47.074Z,89.23
2019-02-02T12:07:15.327Z,80.87
2019-02-02T12:09:43.539Z,86.67
2019-02-02T12:12:12.063Z,83.27
2019-02-02T12:14:40.360Z,79.53
2019-02-02T12:17:08.603Z,73.17
2019-02-02T12:19:39.527Z,81.43
2019-02-02T12:22:07.056Z,106.13
2019-02-02T12:24:35.254Z,140.63
2019-02-02T12:27:03.744Z,99.77
2019-02-02T12:29:32.062Z,92.57
2019-02-02T12:32:00.525Z,100.87
2019-02-02T12:34:29.005Z,108.03
2019-02-02T12:36:57.677Z,122.03
2019-02-02T12:39:26.301Z,108.20
2019-02-02T12:41:54.623Z,103.23
2019-02-02T12:44:25.559Z,127.13
2019-02-02T12:46:54.675Z,121.53
2019-02-02T12:49:23.114Z,119.50
2019-02-02T12:51:51.537Z,113.37
2019-02-02T12:54:19.881Z,104.33
2019-02-02T12:56:48.346Z,110.77
2019-02-02T12:59:16.651Z,105.90
2019-02-02T13:01:44.879Z,118.30
2019-02-02T13:04:13.618Z,105.00
2019-02-02T13:06:42.080Z,108.93
2019-02-02T13:09:10.786Z,99.07
2019-02-02T13:11:39.229Z,100.73
2019-02-02T13:14:08.109Z,96.03
2019-02-02T13:16:36.644Z,92.77
2019-02-02T13:19:05.000Z,90.57
2019-02-02T13:21:33.414Z,89.07
2019-02-02T13:24:01.980Z,80.77
2019-02-02T13:26:30.575Z,78.83
2019-02-02T13:28:58.735Z,79.60
2019-02-02T13:31:27.127Z,76.00
2019-02-02T13:33:55.386Z,80.37
2019-02-02T13:36:23.617Z,74.70
2019-02-02T13:38:51.980Z,72.07
2019-02-02T13:41:20.407Z,72.07
2019-02-02T13:43:48.852Z,67.07
2019-02-02T13:46:17.175Z,68.27
2019-02-02T13:48:45.547Z,72.07
2019-02-02T13:51:13.927Z,67.43
2019-02-02T13:53:42.214Z,71.03
2019-02-02T13:56:10.472Z,68.90
2019-02-02T13:58:39.055Z,63.50
2019-02-02T14:01:07.345Z,62.90
2019-02-02T14:03:35.643Z,52.47
2019-02-02T14:06:04.220Z,57.70
2019-02-02T14:08:36.849Z,58.90
2019-02-02T14:11:10.898Z,54.57
2019-02-02T14:13:44.911Z,53.50
2019-02-02T14:16:18.651Z,52.27
2019-02-02T14:18:52.314Z,52.77
2019-02-02T14:21:25.296Z,49.87
2019-02-02T14:23:54.893Z,53.53
2019-02-02T14:26:23.235Z,49.67
2019-02-02T14:28:51.652Z,42.80
2019-02-02T14:31:20.194Z,50.27
2019-02-02T14:33:48.855Z,48.13
2019-02-02T14:36:17.218Z,47.13
2019-02-02T14:38:45.635Z,45.97
2019-02-02T14:41:14.043Z,47.30
2019-02-02T14:43:42.278Z,46.80
2019-02-02T14:46:10.508Z,44.83
2019-02-02T14:48:38.913Z,42.50
2019-02-02T14:51:07.289Z,45.77
2019-02-02T14:53:35.648Z,51.33
2019-02-02T14:56:04.018Z,43.77
2019-02-02T14:58:33.128Z,44.83
2019-02-02T15:01:01.533Z,54.20
2019-02-02T15:03:29.896Z,55.03
2019-02-02T15:05:58.360Z,50.60
2019-02-02T15:08:26.543Z,50.07
2019-02-02T15:10:54.826Z,47.97
2019-02-02T15:13:23.175Z,46.27
2019-02-02T15:15:51.828Z,52.23
2019-02-02T15:18:20.077Z,47.33
2019-02-02T15:20:48.845Z,43.67
2019-02-02T15:23:17.170Z,45.10
2019-02-02T15:25:45.538Z,44.57
2019-02-02T15:28:13.912Z,46.87
2019-02-02T15:30:43.253Z,45.63
2019-02-02T15:33:11.892Z,43.47
2019-02-02T15:35:40.287Z,46.40
2019-02-02T15:38:08.644Z,42.53
2019-02-02T15:40:37.073Z,40.27
2019-02-02T15:43:05.376Z,40.63
2019-02-02T15:45:33.806Z,40.58
2019-02-02T15:48:01.994Z,38.00
2019-02-02T15:50:32.495Z,35.00
2019-02-02T15:53:00.828Z,36.80
2019-02-02T15:55:29.261Z,35.07
2019-02-02T15:57:57.586Z,36.90
2019-02-02T16:00:29.738Z,38.30
2019-02-02T16:02:58.232Z,35.47
2019-02-02T16:05:26.622Z,38.77
2019-02-02T16:07:55.141Z,59.40
2019-02-02T16:10:24.327Z,50.67
2019-02-02T16:12:52.991Z,38.20
2019-02-02T16:15:21.349Z,40.30
2019-02-02T16:17:49.872Z,40.70
2019-02-02T16:20:19.135Z,39.13
2019-02-02T16:22:47.720Z,45.97
2019-02-02T16:25:16.107Z,41.23
2019-02-02T16:27:44.602Z,41.07
2019-02-02T16:30:14.760Z,47.00
2019-02-02T16:32:43.044Z,48.07
2019-02-02T16:35:11.635Z,45.43
2019-02-02T16:37:39.963Z,41.53
2019-02-02T16:40:09.795Z,44.57
2019-02-02T16:42:38.159Z,48.07
2019-02-02T16:45:07.753Z,42.20
2019-02-02T16:47:35.920Z,40.10
2019-02-02T16:50:05.194Z,41.17
2019-02-02T16:52:33.516Z,37.30
2019-02-02T16:55:02.043Z,36.37
2019-02-02T16:57:30.320Z,37.07
2019-02-02T16:59:58.531Z,34.73
2019-02-02T17:02:27.022Z,38.20
2019-02-02T17:04:55.300Z,37.33
2019-02-02T17:07:23.786Z,40.50
2019-02-02T17:09:52.009Z,37.63
2019-02-02T17:12:20.327Z,42.33
2019-02-02T17:14:49.399Z,40.63
2019-02-02T17:17:19.337Z,42.90
2019-02-02T17:19:47.670Z,36.43
2019-02-02T17:22:16.993Z,35.83
2019-02-02T17:24:45.228Z,38.07
2019-02-02T17:27:13.459Z,32.63
2019-02-02T17:29:41.852Z,33.00
2019-02-02T17:32:10.211Z,37.90
2019-02-02T17:34:38.591Z,31.77
2019-02-02T17:37:06.918Z,37.08
2019-02-02T17:39:35.117Z,33.07
2019-02-02T17:42:04.009Z,33.60
2019-02-02T17:44:32.550Z,32.07
2019-02-02T17:47:02.018Z,29.50
2019-02-02T17:49:30.510Z,28.10
2019-02-02T17:51:58.913Z,34.53
2019-02-02T17:54:27.201Z,37.10
2019-02-02T17:56:55.462Z,25.00
2019-02-02T17:59:23.852Z,26.07
2019-02-02T18:01:52.643Z,21.20
2019-02-02T18:04:21.050Z,21.47
2019-02-02T18:06:49.400Z,21.63
2019-02-02T18:09:17.891Z,24.07
2019-02-02T18:11:46.078Z,21.67
2019-02-02T18:14:14.677Z,20.93
2019-02-02T18:16:44.305Z,24.60
2019-02-02T18:19:12.699Z,29.20
2019-02-02T18:21:41.046Z,22.53
2019-02-02T18:24:09.441Z,25.63
2019-02-02T18:26:37.926Z,22.73
2019-02-02T18:29:06.263Z,21.93
2019-02-02T18:31:34.693Z,21.40
2019-02-02T18:34:03.304Z,22.20
2019-02-02T18:36:31.584Z,20.70
2019-02-02T18:38:59.836Z,21.87
2019-02-02T18:41:28.269Z,20.37
2019-02-02T18:43:56.437Z,22.30
2019-02-02T18:46:24.727Z,15.00
2019-02-02T18:48:52.948Z,15.50
2019-02-02T18:51:21.176Z,18.10
2019-02-02T18:53:49.538Z,20.60
2019-02-02T18:56:17.874Z,23.73
2019-02-02T18:58:46.262Z,22.00
2019-02-02T19:01:14.659Z,19.13
2019-02-02T19:03:43.064Z,21.73
2019-02-02T19:06:11.399Z,20.33
2019-02-02T19:08:39.669Z,19.37
2019-02-02T19:11:07.997Z,20.73
2019-02-02T19:13:36.338Z,20.27
2019-02-02T19:16:04.814Z,20.03
2019-02-02T19:18:32.986Z,20.30
2019-02-02T19:21:02.377Z,37.87
2019-02-02T19:23:31.764Z,54.17
2019-02-02T19:26:00.151Z,35.77
2019-02-02T19:28:39.582Z,25.33
2019-02-02T19:30:59.127Z,23.67
2019-02-02T19:33:27.760Z,20.13
2019-02-02T19:35:56.562Z,21.70
2019-02-02T19:38:25.250Z,21.50
2019-02-02T19:40:53.900Z,23.07
2019-02-02T19:43:22.427Z,14.63
2019-02-02T19:45:53.683Z,17.30
2019-02-02T19:48:22.254Z,20.27
2019-02-02T19:50:50.996Z,19.10
2019-02-02T19:53:19.809Z,16.77
2019-02-02T19:55:48.379Z,15.90
2019-02-02T19:58:17.413Z,17.80
2019-02-02T20:00:46.313Z,17.80
2019-02-02T20:03:15.184Z,13.97
2019-02-02T20:05:43.614Z,26.23
2019-02-02T20:08:12.273Z,13.63
2019-02-02T20:10:40.852Z,13.07
2019-02-02T20:13:09.565Z,10.70
2019-02-02T20:15:38.061Z,9.20
2019-02-02T20:18:09.854Z,7.17
2019-02-02T20:20:37.356Z,8.03
2019-02-02T20:23:05.657Z,8.63
2019-02-02T20:25:33.955Z,9.20
2019-02-02T20:28:02.185Z,9.00
2019-02-02T20:30:30.704Z,10.93
2019-02-02T20:32:58.859Z,8.53
2019-02-02T20:35:39.526Z,8.97
2019-02-02T20:37:57.655Z,8.30
2019-02-02T20:40:26.097Z,9.70
2019-02-02T20:42:54.372Z,6.43
2019-02-02T20:45:23.853Z,6.13
2019-02-02T20:47:52.211Z,3.57
2019-02-02T20:50:20.629Z,4.97
2019-02-02T20:52:49.030Z,3.90
2019-02-02T20:55:18.866Z,5.17
2019-02-02T20:57:47.279Z,3.57
2019-02-02T21:00:16.465Z,3.80
2019-02-02T21:02:44.863Z,3.30
2019-02-02T21:05:13.648Z,3.00
2019-02-02T21:07:42.110Z,3.70
2019-02-02T21:10:11.744Z,2.43
2019-02-02T21:12:40.270Z,2.03
2019-02-02T21:15:09.341Z,2.47
2019-02-02T21:17:37.689Z,2.70
2019-02-02T21:20:07.445Z,2.73
2019-02-02T21:22:35.768Z,2.17
2019-02-02T21:25:04.962Z,2.90
2019-02-02T21:27:33.156Z,3.37
2019-02-02T21:30:01.544Z,3.40
2019-02-02T21:32:29.725Z,8.03
2019-02-02T21:34:58.104Z,7.20
2019-02-02T21:37:26.411Z,6.50
2019-02-02T21:39:55.134Z,8.07
2019-02-02T21:42:23.292Z,6.90
2019-02-02T21:44:51.653Z,6.90
2019-02-02T21:47:19.942Z,6.28
2019-02-02T21:49:48.221Z,6.10
2019-02-02T21:52:16.532Z,6.57
2019-02-02T21:54:45.383Z,6.83
2019-02-02T21:57:13.784Z,6.77
2019-02-02T21:59:41.959Z,6.90
2019-02-02T22:02:10.243Z,8.97
2019-02-02T22:04:41.339Z,8.00
2019-02-02T22:07:08.608Z,8.23
2019-02-02T22:09:36.861Z,9.00
2019-02-02T22:12:05.262Z,7.77
2019-02-02T22:14:33.518Z,7.43
2019-02-02T22:17:01.912Z,7.47
2019-02-02T22:19:31.237Z,6.00
2019-02-02T22:22:00.027Z,5.87
2019-02-02T22:24:28.389Z,5.43
2019-02-02T22:26:56.676Z,6.87
2019-02-02T22:29:24.958Z,8.20
2019-02-02T22:31:53.118Z,6.70
2019-02-02T22:34:21.519Z,5.90
2019-02-02T22:36:50.069Z,7.97
2019-02-02T22:39:19.351Z,10.03
2019-02-02T22:41:47.538Z,10.50
2019-02-02T22:44:15.894Z,9.80
2019-02-02T22:46:44.060Z,10.60
2019-02-02T22:49:12.487Z,10.60
2019-02-02T22:51:40.862Z,9.63
2019-02-02T22:54:09.339Z,9.77
2019-02-02T22:56:37.742Z,8.27
2019-02-02T22:59:06.903Z,9.17
2019-02-02T23:01:37.736Z,10.00
2019-02-02T23:04:09.420Z,10.30
2019-02-02T23:06:49.810Z,10.07
2019-02-02T23:09:38.245Z,9.43
2019-02-02T23:12:35.050Z,8.30
2019-02-02T23:15:22.728Z,8.03
2019-02-02T23:17:51.104Z,7.90
2019-02-02T23:20:19.442Z,8.43
2019-02-02T23:22:47.669Z,7.90
2019-02-02T23:25:15.976Z,8.30
2019-02-02T23:27:44.176Z,9.90
2019-02-02T23:30:13.415Z,8.60
2019-02-02T23:32:41.735Z,9.27
2019-02-02T23:35:10.327Z,9.33
2019-02-02T23:37:38.674Z,9.87
2019-02-02T23:40:07.643Z,9.83
2019-02-02T23:42:35.858Z,10.77
2019-02-02T23:45:05.200Z,9.97
2019-02-02T23:47:33.584Z,9.67
2019-02-02T23:50:01.967Z,11.37
2019-02-02T23:52:31.314Z,11.53
2019-02-02T23:54:59.561Z,12.33
2019-02-02T23:57:28.892Z,11.97
2019-02-02T23:59:57.232Z,12.03
